Terminal Aerodrome Forecast
Issued by NWS Pittsburgh, PA

Current Version | Previous Version | Graphics & Text | Print | Product List | Glossary On
Versions: 1 2 3 4 5 6 7 8 9 10 11 12 13 14 15 16 17 18 19 20 21 22 23 24 25 26 27 28 29 30 31
065
FTUS41 KPBZ 292320
TAFPIT
TAF
KPIT 292320Z 3000/3106 VRB05KT P6SM BKN250
     FM300900 09010KT P6SM BKN100
     FM301600 10012G18KT 6SM -RA OVC040
     FM302100 12012G18KT P6SM BKN250
     FM310000 VRB05KT P6SM BKN250=

USA.gov is the U.S. government's official web portal to all federal, state and local government web resources and services.